createdAt,value
2019-05-17T00:01:43.976Z,28.13
2019-05-17T00:04:10.240Z,28.93
2019-05-17T00:06:36.941Z,27.53
2019-05-17T00:09:06.980Z,30.03
2019-05-17T00:11:33.567Z,31.47
2019-05-17T00:13:59.759Z,29.47
2019-05-17T00:16:26.823Z,30.73
2019-05-17T00:18:53.377Z,30.00
2019-05-17T00:21:19.497Z,29.67
2019-05-17T00:23:46.990Z,29.33
2019-05-17T00:26:13.373Z,29.83
2019-05-17T00:28:39.854Z,30.93
2019-05-17T00:31:06.700Z,30.83
2019-05-17T00:33:33.154Z,32.63
2019-05-17T00:35:59.446Z,29.70
2019-05-17T00:38:27.376Z,30.17
2019-05-17T00:40:56.349Z,29.73
2019-05-17T00:43:22.142Z,30.23
2019-05-17T00:45:48.341Z,31.23
2019-05-17T00:48:16.943Z,29.50
2019-05-17T00:50:42.913Z,29.80
2019-05-17T00:53:09.265Z,30.07
2019-05-17T00:55:36.293Z,32.13
2019-05-17T00:58:02.867Z,30.93
2019-05-17T01:00:29.233Z,31.77
2019-05-17T01:02:57.379Z,31.43
2019-05-17T01:05:23.745Z,29.10
2019-05-17T01:07:50.201Z,30.43
2019-05-17T01:10:16.930Z,30.07
2019-05-17T01:12:43.165Z,28.97
2019-05-17T01:15:10.059Z,30.43
2019-05-17T01:17:36.747Z,29.83
2019-05-17T01:20:06.958Z,30.03
2019-05-17T01:22:33.451Z,27.87
2019-05-17T01:24:59.537Z,28.73
2019-05-17T01:27:26.393Z,27.60
2019-05-17T01:29:52.592Z,27.37
2019-05-17T01:32:18.735Z,27.07
2019-05-17T01:34:46.931Z,27.97
2019-05-17T01:37:13.381Z,27.30
2019-05-17T01:39:39.697Z,28.97
2019-05-17T01:42:06.768Z,29.13
2019-05-17T01:44:33.113Z,27.27
2019-05-17T01:46:59.290Z,28.27
2019-05-17T01:49:27.091Z,28.27
2019-05-17T01:51:53.476Z,28.13
2019-05-17T01:54:19.638Z,28.03
2019-05-17T01:56:46.294Z,27.60
2019-05-17T01:59:12.630Z,28.00
2019-05-17T02:01:39.350Z,29.13
2019-05-17T02:04:06.797Z,27.93
2019-05-17T02:06:33.127Z,27.53
2019-05-17T02:08:59.223Z,27.83
2019-05-17T02:11:26.926Z,27.40
2019-05-17T02:13:53.434Z,27.70
2019-05-17T02:16:19.767Z,29.80
2019-05-17T02:18:46.564Z,27.90
2019-05-17T02:21:12.982Z,26.27
2019-05-17T02:23:39.193Z,27.33
2019-05-17T02:26:06.612Z,26.87
2019-05-17T02:28:34.396Z,28.50
2019-05-17T02:31:03.394Z,26.10
2019-05-17T02:33:29.343Z,28.90
2019-05-17T02:35:55.459Z,27.80
2019-05-17T02:38:22.453Z,28.17
2019-05-17T02:40:48.707Z,28.97
2019-05-17T02:43:14.864Z,28.00
2019-05-17T02:45:43.552Z,28.80
2019-05-17T02:48:09.218Z,26.97
2019-05-17T02:50:35.578Z,26.37
2019-05-17T02:53:04.386Z,26.37
2019-05-17T02:55:32.478Z,27.20
2019-05-17T02:58:02.515Z,25.97
2019-05-17T03:00:27.127Z,27.50
2019-05-17T03:02:53.759Z,27.07
2019-05-17T03:05:22.990Z,27.07
2019-05-17T03:07:48.557Z,27.03
2019-05-17T03:10:23.609Z,26.23
2019-05-17T03:12:44.375Z,28.87
2019-05-17T03:15:13.010Z,26.70
2019-05-17T03:17:42.939Z,26.97
2019-05-17T03:20:08.004Z,27.07
2019-05-17T03:22:34.363Z,26.67
2019-05-17T03:25:03.614Z,26.33
2019-05-17T03:27:33.497Z,28.90
2019-05-17T03:29:58.143Z,27.07
2019-05-17T03:32:26.368Z,28.50
2019-05-17T03:34:55.998Z,28.57
2019-05-17T03:37:25.863Z,28.00
2019-05-17T03:39:53.401Z,27.47
2019-05-17T03:42:18.624Z,28.67
2019-05-17T03:44:45.020Z,28.80
2019-05-17T03:47:13.099Z,28.10
2019-05-17T03:49:39.906Z,29.30
2019-05-17T03:52:06.222Z,26.57
2019-05-17T03:54:32.659Z,26.90
2019-05-17T03:56:58.999Z,26.37
2019-05-17T03:59:25.353Z,24.87
2019-05-17T04:01:52.701Z,25.60
2019-05-17T04:04:22.659Z,27.70
2019-05-17T04:06:47.351Z,23.13
2019-05-17T04:09:14.235Z,23.23
2019-05-17T04:11:42.908Z,21.13
2019-05-17T04:14:08.820Z,20.23
2019-05-17T04:16:35.187Z,19.43
2019-05-17T04:19:03.078Z,20.03
2019-05-17T04:21:29.751Z,17.60
2019-05-17T04:23:55.860Z,18.80
2019-05-17T04:26:23.172Z,22.17
2019-05-17T04:28:52.942Z,18.93
2019-05-17T04:31:17.767Z,19.57
2019-05-17T04:33:43.981Z,17.00
2019-05-17T04:36:13.038Z,14.63
2019-05-17T04:38:38.347Z,16.03
2019-05-17T04:41:04.629Z,15.23
2019-05-17T04:43:33.345Z,14.27
2019-05-17T04:46:02.731Z,13.60
2019-05-17T04:48:28.155Z,13.87
2019-05-17T04:50:54.449Z,13.97
2019-05-17T04:53:23.378Z,11.73
2019-05-17T04:55:49.042Z,11.93
2019-05-17T04:58:15.505Z,12.37
2019-05-17T05:00:42.995Z,12.70
2019-05-17T05:03:12.468Z,12.73
2019-05-17T05:05:37.791Z,12.30
2019-05-17T05:08:04.099Z,12.00
2019-05-17T05:10:32.936Z,11.33
2019-05-17T05:12:58.676Z,11.83
2019-05-17T05:15:43.716Z,11.20
2019-05-17T05:18:09.383Z,10.40
2019-05-17T05:20:35.789Z,10.53
2019-05-17T05:23:02.791Z,11.70
2019-05-17T05:25:29.056Z,12.10
2019-05-17T05:27:55.282Z,10.73
2019-05-17T05:30:22.530Z,11.57
2019-05-17T05:32:48.990Z,11.43
2019-05-17T05:35:15.345Z,11.20
2019-05-17T05:37:42.582Z,11.33
2019-05-17T05:40:09.387Z,11.40
2019-05-17T05:42:35.720Z,12.23
2019-05-17T05:45:03.117Z,12.07
2019-05-17T05:47:29.569Z,11.90
2019-05-17T05:49:55.820Z,11.70
2019-05-17T05:52:22.002Z,12.07
2019-05-17T05:54:48.148Z,12.37
2019-05-17T05:57:14.545Z,11.80
2019-05-17T05:59:42.648Z,12.90
2019-05-17T06:02:08.800Z,12.70
2019-05-17T06:04:35.052Z,13.53
2019-05-17T06:07:02.943Z,12.93
2019-05-17T06:09:31.880Z,12.63
2019-05-17T06:11:58.427Z,13.60
2019-05-17T06:14:24.640Z,15.20
2019-05-17T06:16:51.997Z,15.20
2019-05-17T06:19:18.431Z,15.00
2019-05-17T06:21:45.630Z,15.80
2019-05-17T06:24:12.069Z,14.33
2019-05-17T06:26:38.278Z,15.07
2019-05-17T06:29:04.713Z,14.30
2019-05-17T06:31:33.135Z,15.13
2019-05-17T06:33:58.989Z,15.47
2019-05-17T06:36:25.105Z,14.30
2019-05-17T06:38:52.719Z,14.23
2019-05-17T06:41:21.560Z,13.50
2019-05-17T06:43:47.891Z,13.77
2019-05-17T06:46:14.207Z,13.80
2019-05-17T06:48:42.397Z,12.57
2019-05-17T06:51:08.724Z,12.90
2019-05-17T06:53:35.016Z,12.10
2019-05-17T06:56:02.738Z,12.30
2019-05-17T06:58:31.375Z,12.50
2019-05-17T07:00:57.137Z,12.90
2019-05-17T07:03:23.263Z,13.17
2019-05-17T07:05:51.303Z,12.83
2019-05-17T07:08:17.433Z,13.80
2019-05-17T07:10:44.689Z,13.03
2019-05-17T07:13:11.031Z,12.97
2019-05-17T07:15:44.750Z,12.93
2019-05-17T07:18:05.750Z,13.47
2019-05-17T07:20:32.058Z,14.23
2019-05-17T07:23:00.417Z,13.90
2019-05-17T07:25:26.428Z,14.67
2019-05-17T07:27:53.880Z,15.13
2019-05-17T07:30:20.938Z,15.20
2019-05-17T07:32:49.606Z,15.60
2019-05-17T07:35:15.731Z,14.97
2019-05-17T07:37:42.009Z,16.73
2019-05-17T07:40:10.830Z,15.53
2019-05-17T07:42:39.468Z,14.80
2019-05-17T07:45:05.976Z,15.63
2019-05-17T07:47:32.181Z,15.07
2019-05-17T07:50:00.942Z,16.10
2019-05-17T07:52:26.368Z,15.00
2019-05-17T07:54:53.595Z,15.80
2019-05-17T07:57:20.735Z,15.27
2019-05-17T07:59:50.631Z,15.43
2019-05-17T08:02:16.107Z,15.70
2019-05-17T08:04:42.322Z,15.13
2019-05-17T08:07:10.713Z,14.70
2019-05-17T08:09:36.878Z,14.07
2019-05-17T08:12:03.230Z,14.17
2019-05-17T08:14:31.092Z,14.60
2019-05-17T08:16:59.802Z,14.33
2019-05-17T08:19:25.782Z,15.00
2019-05-17T08:21:52.114Z,14.93
2019-05-17T08:24:19.646Z,15.27
2019-05-17T08:26:45.751Z,14.57
2019-05-17T08:29:11.896Z,14.57
2019-05-17T08:31:40.348Z,14.40
2019-05-17T08:34:06.462Z,14.57
2019-05-17T08:36:33.791Z,15.93
2019-05-17T08:39:00.871Z,15.90
2019-05-17T08:41:30.699Z,15.20
2019-05-17T08:43:55.315Z,15.00
2019-05-17T08:46:21.587Z,15.73
2019-05-17T08:48:49.484Z,15.70
2019-05-17T08:51:15.756Z,14.97
2019-05-17T08:53:42.042Z,14.60
2019-05-17T08:56:09.940Z,15.80
2019-05-17T08:58:36.324Z,15.70
2019-05-17T09:01:02.751Z,17.83
2019-05-17T09:03:30.435Z,16.03
2019-05-17T09:05:56.683Z,15.67
2019-05-17T09:08:22.946Z,16.47
2019-05-17T09:10:50.462Z,16.87
2019-05-17T09:13:19.378Z,16.43
2019-05-17T09:15:45.098Z,15.83
2019-05-17T09:18:11.368Z,15.70
2019-05-17T09:20:40.234Z,15.67
2019-05-17T09:23:05.864Z,16.43
2019-05-17T09:25:32.262Z,15.73
2019-05-17T09:28:00.689Z,17.03
2019-05-17T09:30:27.234Z,16.37
2019-05-17T09:32:53.752Z,17.00
2019-05-17T09:35:20.791Z,16.23
2019-05-17T09:37:49.726Z,16.63
2019-05-17T09:40:15.674Z,17.07
2019-05-17T09:42:42.242Z,17.23
2019-05-17T09:45:09.678Z,17.63
2019-05-17T09:47:36.224Z,16.93
2019-05-17T09:50:05.005Z,18.00
2019-05-17T09:52:31.135Z,17.70
2019-05-17T09:54:57.291Z,18.60
2019-05-17T09:57:23.398Z,18.83
2019-05-17T09:59:49.734Z,19.07
2019-05-17T10:02:16.066Z,17.70
2019-05-17T10:04:42.288Z,20.07
2019-05-17T10:07:10.129Z,18.13
2019-05-17T10:09:36.592Z,19.50
2019-05-17T10:12:02.963Z,17.77
2019-05-17T10:14:31.369Z,18.60
2019-05-17T10:16:57.393Z,18.03
2019-05-17T10:19:23.732Z,18.80
2019-05-17T10:21:49.961Z,18.10
2019-05-17T10:24:16.214Z,18.93
2019-05-17T10:26:42.330Z,19.07
2019-05-17T10:29:09.996Z,18.00
2019-05-17T10:31:36.337Z,18.03
2019-05-17T10:34:02.889Z,19.53
2019-05-17T10:36:30.111Z,16.50
2019-05-17T10:38:56.513Z,16.23
2019-05-17T10:41:22.893Z,16.37
2019-05-17T10:43:50.052Z,16.63
2019-05-17T10:46:20.365Z,16.77
2019-05-17T10:48:49.895Z,16.97
2019-05-17T10:51:15.596Z,15.70
2019-05-17T10:53:42.051Z,16.07
2019-05-17T10:56:10.026Z,16.00
2019-05-17T10:58:36.310Z,17.10
2019-05-17T11:01:02.748Z,16.57
2019-05-17T11:03:29.688Z,17.70
2019-05-17T11:05:56.231Z,16.97
2019-05-17T11:08:22.361Z,18.03
2019-05-17T11:10:50.155Z,16.60
2019-05-17T11:13:16.725Z,17.03
2019-05-17T11:15:43.063Z,16.43
2019-05-17T11:18:09.383Z,17.40
2019-05-17T11:20:35.747Z,17.60
2019-05-17T11:23:02.115Z,16.70
2019-05-17T11:25:28.223Z,16.60
2019-05-17T11:27:54.612Z,17.57
2019-05-17T11:30:20.973Z,16.83
2019-05-17T11:32:47.335Z,16.87
2019-05-17T11:35:13.721Z,16.57
2019-05-17T11:37:39.859Z,17.17
2019-05-17T11:40:08.324Z,15.87
2019-05-17T11:42:34.616Z,16.20
2019-05-17T11:45:00.835Z,16.53
2019-05-17T11:47:27.152Z,15.70
2019-05-17T11:49:53.597Z,15.30
2019-05-17T11:52:19.892Z,15.73
2019-05-17T11:54:46.022Z,15.17
2019-05-17T11:57:12.511Z,14.43
2019-05-17T11:59:38.983Z,13.33
2019-05-17T12:02:05.311Z,13.20
2019-05-17T12:04:31.562Z,13.07
2019-05-17T12:06:57.786Z,13.10
2019-05-17T12:09:36.410Z,11.73
2019-05-17T12:11:52.268Z,11.17
2019-05-17T12:14:18.500Z,9.80
2019-05-17T12:16:44.773Z,11.40
2019-05-17T12:19:10.962Z,11.13
2019-05-17T12:21:37.253Z,11.00
2019-05-17T12:24:04.717Z,8.53
2019-05-17T12:26:31.083Z,12.70
2019-05-17T12:28:57.273Z,12.63
2019-05-17T12:31:23.570Z,11.50
2019-05-17T12:33:49.854Z,12.40
2019-05-17T12:36:16.098Z,13.10
2019-05-17T12:38:42.381Z,12.97
2019-05-17T12:41:08.752Z,12.77
2019-05-17T12:43:34.898Z,14.20
2019-05-17T12:46:01.890Z,14.93
2019-05-17T12:48:28.182Z,13.73
2019-05-17T12:50:54.641Z,13.83
2019-05-17T12:53:20.916Z,14.00
2019-05-17T12:55:47.178Z,14.10
2019-05-17T12:58:13.524Z,14.63
2019-05-17T13:00:39.734Z,14.93
2019-05-17T13:03:06.007Z,17.40
2019-05-17T13:05:32.346Z,14.77
2019-05-17T13:07:58.465Z,15.53
2019-05-17T13:10:24.831Z,15.77
2019-05-17T13:12:51.038Z,16.07
2019-05-17T13:15:17.378Z,18.10
2019-05-17T13:17:43.611Z,16.43
2019-05-17T13:20:10.434Z,17.70
2019-05-17T13:22:36.800Z,18.43
2019-05-17T13:25:05.169Z,17.17
2019-05-17T13:27:31.365Z,16.50
2019-05-17T13:29:57.693Z,17.73
2019-05-17T13:32:23.965Z,16.50
2019-05-17T13:34:50.380Z,18.90
2019-05-17T13:37:16.511Z,18.53
2019-05-17T13:39:42.684Z,17.57
2019-05-17T13:42:09.100Z,16.73
2019-05-17T13:44:35.247Z,16.67
2019-05-17T13:47:01.679Z,16.37
2019-05-17T13:49:28.144Z,16.20
2019-05-17T13:51:54.269Z,16.57
2019-05-17T13:54:20.618Z,19.13
2019-05-17T13:56:46.713Z,15.37
2019-05-17T13:59:13.098Z,15.17
2019-05-17T14:01:39.400Z,16.50
2019-05-17T14:04:05.927Z,16.97
2019-05-17T14:06:32.207Z,17.00
2019-05-17T14:08:58.340Z,17.17
2019-05-17T14:11:24.650Z,17.27
2019-05-17T14:13:50.915Z,17.20
2019-05-17T14:16:17.299Z,18.20
2019-05-17T14:18:43.744Z,18.17
2019-05-17T14:21:10.149Z,17.83
2019-05-17T14:23:36.576Z,17.63
2019-05-17T14:26:03.155Z,23.03
2019-05-17T14:28:29.677Z,21.57
2019-05-17T14:30:55.999Z,18.30
2019-05-17T14:33:23.423Z,17.53
2019-05-17T14:35:49.637Z,18.70
2019-05-17T14:38:15.787Z,17.63
2019-05-17T14:43:10.604Z,16.10
2019-05-17T14:45:36.778Z,17.40
2019-05-17T14:48:03.189Z,16.10
2019-05-17T14:50:29.473Z,15.90
2019-05-17T14:52:55.810Z,16.10
2019-05-17T14:55:22.237Z,17.67
2019-05-17T14:57:48.388Z,16.83
2019-05-17T15:00:16.539Z,15.33
2019-05-17T15:02:42.777Z,16.07
2019-05-17T15:05:09.329Z,14.83
2019-05-17T15:07:35.501Z,15.00
2019-05-17T15:10:03.694Z,15.87
2019-05-17T15:12:30.038Z,15.90
2019-05-17T15:14:56.176Z,17.80
2019-05-17T15:17:22.410Z,17.97
2019-05-17T15:19:51.293Z,16.87
2019-05-17T15:22:16.840Z,15.57
2019-05-17T15:24:43.160Z,16.23
2019-05-17T15:27:09.478Z,17.67
2019-05-17T15:29:35.602Z,16.47
2019-05-17T15:32:01.828Z,18.30
2019-05-17T15:34:28.160Z,16.37
2019-05-17T15:36:54.317Z,18.10
2019-05-17T15:39:20.678Z,15.83
2019-05-17T15:41:46.991Z,16.37
2019-05-17T15:44:13.339Z,14.77
2019-05-17T15:46:39.686Z,14.50
2019-05-17T15:49:06.063Z,13.90
2019-05-17T15:51:32.494Z,15.63
2019-05-17T15:53:58.757Z,14.17
2019-05-17T15:56:25.470Z,15.00
2019-05-17T15:58:51.766Z,14.70
2019-05-17T16:01:18.136Z,15.53
2019-05-17T16:03:44.474Z,15.23
2019-05-17T16:06:10.928Z,14.17
2019-05-17T16:08:37.382Z,14.53
2019-05-17T16:11:03.747Z,13.63
2019-05-17T16:13:33.731Z,13.83
2019-05-17T16:15:59.128Z,13.90
2019-05-17T16:18:25.370Z,12.83
2019-05-17T16:20:51.441Z,16.00
2019-05-17T16:23:17.787Z,13.13
2019-05-17T16:25:44.047Z,14.20
2019-05-17T16:28:10.285Z,13.87
2019-05-17T16:30:36.582Z,13.57
2019-05-17T16:33:02.931Z,12.80
2019-05-17T16:35:29.363Z,12.47
2019-05-17T16:37:55.591Z,12.47
2019-05-17T16:40:21.862Z,11.93
2019-05-17T16:42:48.044Z,10.70
2019-05-17T16:45:17.302Z,10.60
2019-05-17T16:47:43.728Z,9.80
2019-05-17T16:50:10.303Z,7.90
2019-05-17T16:52:36.843Z,8.03
2019-05-17T16:55:07.066Z,8.57
2019-05-17T16:57:33.439Z,11.93
2019-05-17T16:59:59.839Z,9.07
2019-05-17T17:02:26.194Z,7.93
2019-05-17T17:04:52.561Z,7.57
2019-05-17T17:07:19.080Z,9.97
2019-05-17T17:09:45.384Z,7.80
2019-05-17T17:12:11.597Z,8.13
2019-05-17T17:14:37.980Z,7.10
2019-05-17T17:17:10.288Z,7.60
2019-05-17T17:19:32.739Z,8.10
2019-05-17T17:21:59.013Z,7.70
2019-05-17T17:24:25.344Z,7.77
2019-05-17T17:26:51.595Z,8.77
2019-05-17T17:29:18.073Z,7.97
2019-05-17T17:31:45.319Z,8.40
2019-05-17T17:34:11.619Z,7.73
2019-05-17T17:36:37.863Z,7.93
2019-05-17T17:39:05.254Z,8.37
2019-05-17T17:41:31.592Z,8.40
2019-05-17T17:43:59.184Z,7.70
2019-05-17T17:46:25.813Z,7.70
2019-05-17T17:48:52.136Z,7.50
2019-05-17T17:51:18.251Z,8.23
2019-05-17T17:53:44.529Z,9.03
2019-05-17T17:56:13.557Z,9.87
2019-05-17T17:58:39.201Z,9.13
2019-05-17T18:01:05.613Z,8.23
2019-05-17T18:03:31.949Z,8.53
2019-05-17T18:05:59.180Z,9.20
2019-05-17T18:08:25.406Z,8.10
2019-05-17T18:10:51.766Z,8.90
2019-05-17T18:13:18.079Z,9.73
2019-05-17T18:15:44.775Z,10.20
2019-05-17T18:18:11.288Z,10.30
2019-05-17T18:20:37.639Z,9.43
2019-05-17T18:23:04.423Z,10.37
2019-05-17T18:25:30.867Z,10.50
2019-05-17T18:27:57.230Z,10.67
2019-05-17T18:30:23.441Z,11.33
2019-05-17T18:32:49.898Z,13.60
2019-05-17T18:35:16.226Z,12.10
2019-05-17T18:37:42.756Z,11.80
2019-05-17T18:40:09.121Z,11.77
2019-05-17T18:42:35.456Z,12.60
2019-05-17T18:45:02.316Z,13.10
2019-05-17T18:47:28.736Z,12.67
2019-05-17T18:49:54.925Z,13.57
2019-05-17T18:52:21.148Z,12.03
2019-05-17T18:54:47.264Z,11.90
2019-05-17T18:57:13.681Z,11.80
2019-05-17T18:59:39.898Z,12.70
2019-05-17T19:02:09.000Z,12.90
2019-05-17T19:04:35.320Z,13.30
2019-05-17T19:07:01.739Z,12.77
2019-05-17T19:09:28.251Z,12.67
2019-05-17T19:11:54.629Z,12.53
2019-05-17T19:14:20.944Z,14.20
2019-05-17T19:16:47.346Z,14.23
2019-05-17T19:19:13.509Z,13.93
2019-05-17T19:21:39.951Z,23.63
2019-05-17T19:24:06.402Z,14.93
2019-05-17T19:26:32.619Z,15.03
2019-05-17T19:28:58.769Z,14.70
2019-05-17T19:31:25.106Z,15.60
2019-05-17T19:33:51.578Z,18.03
2019-05-17T19:36:18.225Z,19.23
2019-05-17T19:38:47.524Z,18.20
2019-05-17T19:41:13.996Z,16.53
2019-05-17T19:43:40.163Z,18.97
2019-05-17T19:46:06.658Z,18.20
2019-05-17T19:48:33.121Z,16.83
2019-05-17T19:50:59.577Z,17.37
2019-05-17T19:53:27.018Z,18.57
2019-05-17T19:55:54.619Z,19.77
2019-05-17T19:58:21.006Z,18.13
2019-05-17T20:00:47.343Z,18.97
2019-05-17T20:03:13.842Z,19.17
2019-05-17T20:05:40.291Z,18.93
2019-05-17T20:08:06.811Z,19.60
2019-05-17T20:10:33.247Z,18.43
2019-05-17T20:12:59.697Z,23.33
2019-05-17T20:15:34.065Z,18.83
2019-05-17T20:17:54.684Z,20.17
2019-05-17T20:20:21.103Z,18.10
2019-05-17T20:22:47.407Z,23.87
2019-05-17T20:25:14.352Z,19.50
2019-05-17T20:27:40.780Z,22.60
2019-05-17T20:30:07.874Z,20.13
2019-05-17T20:32:34.354Z,21.00
2019-05-17T20:35:02.860Z,21.47
2019-05-17T20:37:29.303Z,17.80
2019-05-17T20:39:55.437Z,17.77
2019-05-17T20:42:21.769Z,19.10
2019-05-17T20:44:48.145Z,18.80
2019-05-17T20:47:14.350Z,19.90
2019-05-17T20:49:40.625Z,21.97
2019-05-17T20:52:06.742Z,19.90
2019-05-17T20:54:32.960Z,20.33
2019-05-17T20:56:59.268Z,19.03
2019-05-17T20:59:25.610Z,19.63
2019-05-17T21:01:52.974Z,18.30
2019-05-17T21:04:19.202Z,21.77
2019-05-17T21:06:45.536Z,22.03
2019-05-17T21:09:11.877Z,22.73
2019-05-17T21:11:38.144Z,23.33
2019-05-17T21:14:04.857Z,26.00
2019-05-17T21:16:31.222Z,18.63
2019-05-17T21:18:58.622Z,18.40
2019-05-17T21:21:24.933Z,18.27
2019-05-17T21:23:51.188Z,18.20
2019-05-17T21:26:17.452Z,20.87
2019-05-17T21:28:47.095Z,17.23
2019-05-17T21:31:11.939Z,18.97
2019-05-17T21:33:38.321Z,19.00
2019-05-17T21:36:04.546Z,18.87
2019-05-17T21:38:30.845Z,16.83
2019-05-17T21:40:57.087Z,17.70
2019-05-17T21:43:23.221Z,17.10
2019-05-17T21:46:02.674Z,16.53
2019-05-17T21:48:17.483Z,17.83
2019-05-17T21:50:43.788Z,16.60
2019-05-17T21:53:09.956Z,17.17
2019-05-17T21:55:36.088Z,17.53
2019-05-17T21:58:02.423Z,15.97
2019-05-17T22:00:49.624Z,17.43
2019-05-17T22:03:15.984Z,17.07
2019-05-17T22:05:42.145Z,17.03
2019-05-17T22:08:08.503Z,16.53
2019-05-17T22:10:34.601Z,17.30
2019-05-17T22:13:00.828Z,18.03
2019-05-17T22:15:26.942Z,17.40
2019-05-17T22:17:53.353Z,17.40
2019-05-17T22:20:19.586Z,17.30
2019-05-17T22:22:45.915Z,17.27
2019-05-17T22:25:12.256Z,17.57
2019-05-17T22:27:38.375Z,18.03
2019-05-17T22:30:05.543Z,17.63
2019-05-17T22:32:31.662Z,17.23
2019-05-17T22:34:57.802Z,17.60
2019-05-17T22:37:23.884Z,18.33
2019-05-17T22:39:50.127Z,17.20
2019-05-17T22:42:16.272Z,17.23
2019-05-17T22:44:42.688Z,17.30
2019-05-17T22:47:09.130Z,17.10
2019-05-17T22:49:35.520Z,16.80
2019-05-17T22:52:01.839Z,17.03
2019-05-17T22:54:29.159Z,22.13
2019-05-17T22:56:55.324Z,19.17
2019-05-17T22:59:21.493Z,18.57
2019-05-17T23:01:47.792Z,18.60
2019-05-17T23:04:13.926Z,17.70
2019-05-17T23:06:40.309Z,18.63
2019-05-17T23:09:06.645Z,19.60
2019-05-17T23:11:32.968Z,19.17
2019-05-17T23:13:59.247Z,18.63
2019-05-17T23:16:25.595Z,20.50
2019-05-17T23:19:07.669Z,20.80
2019-05-17T23:21:34.064Z,22.17
2019-05-17T23:24:00.244Z,21.00
2019-05-17T23:26:26.866Z,20.40
2019-05-17T23:28:53.311Z,20.60
2019-05-17T23:31:19.453Z,20.80
2019-05-17T23:33:45.759Z,20.70
2019-05-17T23:36:11.913Z,20.10
2019-05-17T23:38:38.118Z,19.67
2019-05-17T23:41:04.363Z,21.00
2019-05-17T23:43:31.613Z,22.03
2019-05-17T23:45:57.981Z,21.97
2019-05-17T23:48:24.188Z,21.13
2019-05-17T23:50:50.413Z,21.30
2019-05-17T23:53:16.688Z,22.87
2019-05-17T23:55:42.812Z,22.10
2019-05-17T23:58:09.289Z,23.67
